sensor_id;sensor_type;location;lat;lon;timestamp;temperature;humidity
53520;DHT22;39397;53.204;5.778;2023-02-28T00:00:04;5.40;99.90
53520;DHT22;39397;53.204;5.778;2023-02-28T00:02:42;4.40;99.90
53520;DHT22;39397;53.204;5.778;2023-02-28T00:05:10;4.60;99.90
53520;DHT22;39397;53.204;5.778;2023-02-28T00:07:36;5.90;99.90
53520;DHT22;39397;53.204;5.778;2023-02-28T00:10:04;6.30;99.90
53520;DHT22;39397;53.204;5.778;2023-02-28T00:12:32;4.50;99.90
53520;DHT22;39397;53.204;5.778;2023-02-28T00:14:57;5.60;99.90
53520;DHT22;39397;53.204;5.778;2023-02-28T00:17:23;5.10;99.90
53520;DHT22;39397;53.204;5.778;2023-02-28T00:19:49;4.60;99.90
53520;DHT22;39397;53.204;5.778;2023-02-28T00:22:17;4.70;99.90
53520;DHT22;39397;53.204;5.778;2023-02-28T00:24:43;5.80;99.90
53520;DHT22;39397;53.204;5.778;2023-02-28T00:27:09;4.60;99.90
53520;DHT22;39397;53.204;5.778;2023-02-28T00:29:35;5.00;99.90
53520;DHT22;39397;53.204;5.778;2023-02-28T00:32:01;4.50;99.90
53520;DHT22;39397;53.204;5.778;2023-02-28T00:34:27;4.50;99.90
53520;DHT22;39397;53.204;5.778;2023-02-28T00:36:53;4.50;99.90
53520;DHT22;39397;53.204;5.778;2023-02-28T00:39:19;5.20;99.90
53520;DHT22;39397;53.204;5.778;2023-02-28T00:41:44;4.50;99.90
53520;DHT22;39397;53.204;5.778;2023-02-28T00:44:11;5.80;99.90
53520;DHT22;39397;53.204;5.778;2023-02-28T00:46:36;5.40;99.90
53520;DHT22;39397;53.204;5.778;2023-02-28T00:49:02;5.10;99.90
53520;DHT22;39397;53.204;5.778;2023-02-28T00:51:28;5.50;99.90
53520;DHT22;39397;53.204;5.778;2023-02-28T00:53:54;4.70;99.90
53520;DHT22;39397;53.204;5.778;2023-02-28T00:56:20;4.60;99.90
53520;DHT22;39397;53.204;5.778;2023-02-28T00:58:46;5.60;99.90
53520;DHT22;39397;53.204;5.778;2023-02-28T01:01:11;6.30;99.90
53520;DHT22;39397;53.204;5.778;2023-02-28T01:03:37;4.70;99.90
53520;DHT22;39397;53.204;5.778;2023-02-28T01:06:04;4.60;99.90
53520;DHT22;39397;53.204;5.778;2023-02-28T01:08:29;4.50;99.90
53520;DHT22;39397;53.204;5.778;2023-02-28T01:10:55;4.70;99.90
53520;DHT22;39397;53.204;5.778;2023-02-28T01:13:21;5.20;99.90
53520;DHT22;39397;53.204;5.778;2023-02-28T01:15:51;5.60;99.90
53520;DHT22;39397;53.204;5.778;2023-02-28T01:18:17;6.20;99.90
53520;DHT22;39397;53.204;5.778;2023-02-28T01:20:43;4.60;99.90
53520;DHT22;39397;53.204;5.778;2023-02-28T01:23:09;6.20;99.90
53520;DHT22;39397;53.204;5.778;2023-02-28T01:25:35;4.70;99.90
53520;DHT22;39397;53.204;5.778;2023-02-28T01:28:01;5.20;99.90
53520;DHT22;39397;53.204;5.778;2023-02-28T01:30:27;4.90;99.90
53520;DHT22;39397;53.204;5.778;2023-02-28T01:32:53;4.60;99.90
53520;DHT22;39397;53.204;5.778;2023-02-28T01:35:19;6.30;99.90
53520;DHT22;39397;53.204;5.778;2023-02-28T01:37:45;4.70;99.90
53520;DHT22;39397;53.204;5.778;2023-02-28T01:40:11;5.10;99.90
53520;DHT22;39397;53.204;5.778;2023-02-28T01:42:37;4.70;99.90
53520;DHT22;39397;53.204;5.778;2023-02-28T01:45:20;4.60;99.90
53520;DHT22;39397;53.204;5.778;2023-02-28T01:47:49;4.70;99.90
53520;DHT22;39397;53.204;5.778;2023-02-28T01:50:22;4.70;99.90
53520;DHT22;39397;53.204;5.778;2023-02-28T01:52:50;5.60;99.90
53520;DHT22;39397;53.204;5.778;2023-02-28T01:55:18;5.70;99.90
53520;DHT22;39397;53.204;5.778;2023-02-28T01:57:51;6.20;99.90
53520;DHT22;39397;53.204;5.778;2023-02-28T02:00:21;4.70;99.90
53520;DHT22;39397;53.204;5.778;2023-02-28T02:02:51;4.60;99.90
53520;DHT22;39397;53.204;5.778;2023-02-28T02:05:24;5.30;99.90
53520;DHT22;39397;53.204;5.778;2023-02-28T02:07:56;4.70;99.90
53520;DHT22;39397;53.204;5.778;2023-02-28T02:10:27;6.30;99.90
53520;DHT22;39397;53.204;5.778;2023-02-28T02:18:46;4.70;99.90
53520;DHT22;39397;53.204;5.778;2023-02-28T02:25:11;4.60;99.90
53520;DHT22;39397;53.204;5.778;2023-02-28T02:40:32;4.90;99.90
53520;DHT22;39397;53.204;5.778;2023-02-28T02:48:08;4.90;99.90
53520;DHT22;39397;53.204;5.778;2023-02-28T02:50:42;5.70;99.90
53520;DHT22;39397;53.204;5.778;2023-02-28T02:53:10;5.00;99.90
53520;DHT22;39397;53.204;5.778;2023-02-28T02:55:41;6.00;99.90
53520;DHT22;39397;53.204;5.778;2023-02-28T02:58:12;5.30;99.90
53520;DHT22;39397;53.204;5.778;2023-02-28T03:00:46;5.40;99.90
53520;DHT22;39397;53.204;5.778;2023-02-28T03:03:14;6.00;99.90
53520;DHT22;39397;53.204;5.778;2023-02-28T03:05:50;5.00;99.90
53520;DHT22;39397;53.204;5.778;2023-02-28T03:08:16;5.70;99.90
53520;DHT22;39397;53.204;5.778;2023-02-28T03:10:49;5.50;99.90
53520;DHT22;39397;53.204;5.778;2023-02-28T03:18:54;6.10;99.90
53520;DHT22;39397;53.204;5.778;2023-02-28T03:24:17;5.10;99.90
53520;DHT22;39397;53.204;5.778;2023-02-28T03:27:00;5.10;99.90
53520;DHT22;39397;53.204;5.778;2023-02-28T03:29:40;5.20;99.90
53520;DHT22;39397;53.204;5.778;2023-02-28T03:32:16;6.40;99.90
53520;DHT22;39397;53.204;5.778;2023-02-28T03:34:54;5.10;99.90
53520;DHT22;39397;53.204;5.778;2023-02-28T03:37:23;5.50;99.90
53520;DHT22;39397;53.204;5.778;2023-02-28T03:39:57;6.30;99.90
53520;DHT22;39397;53.204;5.778;2023-02-28T03:42:28;5.80;99.90
53520;DHT22;39397;53.204;5.778;2023-02-28T03:45:04;5.10;99.90
53520;DHT22;39397;53.204;5.778;2023-02-28T03:50:12;5.20;99.90
53520;DHT22;39397;53.204;5.778;2023-02-28T03:52:47;5.10;99.90
53520;DHT22;39397;53.204;5.778;2023-02-28T03:55:16;5.80;99.90
53520;DHT22;39397;53.204;5.778;2023-02-28T04:00:52;5.20;99.90
53520;DHT22;39397;53.204;5.778;2023-02-28T04:03:18;5.20;99.90
53520;DHT22;39397;53.204;5.778;2023-02-28T04:05:52;5.40;99.90
53520;DHT22;39397;53.204;5.778;2023-02-28T04:08:18;5.30;99.90
53520;DHT22;39397;53.204;5.778;2023-02-28T04:10:58;5.30;99.90
53520;DHT22;39397;53.204;5.778;2023-02-28T04:13:26;5.40;99.90
53520;DHT22;39397;53.204;5.778;2023-02-28T04:15:52;5.40;99.90
53520;DHT22;39397;53.204;5.778;2023-02-28T04:18:18;6.00;99.90
53520;DHT22;39397;53.204;5.778;2023-02-28T04:20:43;5.50;99.90
53520;DHT22;39397;53.204;5.778;2023-02-28T04:23:09;5.70;99.90
53520;DHT22;39397;53.204;5.778;2023-02-28T04:25:35;5.60;99.90
53520;DHT22;39397;53.204;5.778;2023-02-28T04:28:00;5.20;99.90
53520;DHT22;39397;53.204;5.778;2023-02-28T04:30:26;5.60;99.90
53520;DHT22;39397;53.204;5.778;2023-02-28T04:32:52;5.40;99.90
53520;DHT22;39397;53.204;5.778;2023-02-28T04:35:17;5.40;99.90
53520;DHT22;39397;53.204;5.778;2023-02-28T04:37:43;6.40;99.90
53520;DHT22;39397;53.204;5.778;2023-02-28T04:40:09;5.40;99.90
53520;DHT22;39397;53.204;5.778;2023-02-28T04:42:35;5.30;99.90
53520;DHT22;39397;53.204;5.778;2023-02-28T04:45:04;6.00;99.90
53520;DHT22;39397;53.204;5.778;2023-02-28T04:47:31;5.30;99.90
53520;DHT22;39397;53.204;5.778;2023-02-28T04:49:56;6.10;99.90
53520;DHT22;39397;53.204;5.778;2023-02-28T04:52:22;6.40;99.90
53520;DHT22;39397;53.204;5.778;2023-02-28T04:54:48;5.50;99.90
53520;DHT22;39397;53.204;5.778;2023-02-28T04:57:14;6.10;99.90
53520;DHT22;39397;53.204;5.778;2023-02-28T04:59:39;5.70;99.90
53520;DHT22;39397;53.204;5.778;2023-02-28T05:02:05;6.60;99.90
53520;DHT22;39397;53.204;5.778;2023-02-28T05:04:33;5.60;99.90
53520;DHT22;39397;53.204;5.778;2023-02-28T05:07:00;6.60;99.90
53520;DHT22;39397;53.204;5.778;2023-02-28T05:09:26;6.90;99.90
53520;DHT22;39397;53.204;5.778;2023-02-28T05:11:53;6.00;99.90
53520;DHT22;39397;53.204;5.778;2023-02-28T05:14:19;6.90;99.90
53520;DHT22;39397;53.204;5.778;2023-02-28T05:16:45;5.60;99.90
53520;DHT22;39397;53.204;5.778;2023-02-28T05:19:11;5.50;99.90
53520;DHT22;39397;53.204;5.778;2023-02-28T05:21:40;6.60;99.90
53520;DHT22;39397;53.204;5.778;2023-02-28T05:24:09;5.50;99.90
53520;DHT22;39397;53.204;5.778;2023-02-28T05:26:40;5.50;99.90
53520;DHT22;39397;53.204;5.778;2023-02-28T05:29:06;5.60;99.90
53520;DHT22;39397;53.204;5.778;2023-02-28T05:31:33;5.70;99.90
53520;DHT22;39397;53.204;5.778;2023-02-28T05:33:58;6.50;99.90
53520;DHT22;39397;53.204;5.778;2023-02-28T05:36:24;5.80;99.90
53520;DHT22;39397;53.204;5.778;2023-02-28T05:38:51;6.60;99.90
53520;DHT22;39397;53.204;5.778;2023-02-28T05:41:17;5.60;99.90
53520;DHT22;39397;53.204;5.778;2023-02-28T05:43:45;6.80;99.90
53520;DHT22;39397;53.204;5.778;2023-02-28T05:46:11;6.00;99.90
53520;DHT22;39397;53.204;5.778;2023-02-28T05:48:39;5.80;99.90
53520;DHT22;39397;53.204;5.778;2023-02-28T05:51:05;5.60;99.90
53520;DHT22;39397;53.204;5.778;2023-02-28T05:53:32;5.70;99.90
53520;DHT22;39397;53.204;5.778;2023-02-28T05:55:58;5.60;99.90
53520;DHT22;39397;53.204;5.778;2023-02-28T05:58:24;5.90;99.90
53520;DHT22;39397;53.204;5.778;2023-02-28T06:01:00;6.20;99.90
53520;DHT22;39397;53.204;5.778;2023-02-28T06:03:27;5.70;99.90
53520;DHT22;39397;53.204;5.778;2023-02-28T06:05:52;5.80;99.90
53520;DHT22;39397;53.204;5.778;2023-02-28T06:08:18;6.00;99.90
53520;DHT22;39397;53.204;5.778;2023-02-28T06:10:44;5.70;99.90
53520;DHT22;39397;53.204;5.778;2023-02-28T06:13:10;5.70;99.90
53520;DHT22;39397;53.204;5.778;2023-02-28T06:15:37;5.90;99.90
53520;DHT22;39397;53.204;5.778;2023-02-28T06:18:02;6.80;99.90
53520;DHT22;39397;53.204;5.778;2023-02-28T06:20:28;5.60;99.90
53520;DHT22;39397;53.204;5.778;2023-02-28T06:22:56;5.90;99.90
53520;DHT22;39397;53.204;5.778;2023-02-28T06:25:24;6.50;99.90
53520;DHT22;39397;53.204;5.778;2023-02-28T06:27:50;5.70;99.90
53520;DHT22;39397;53.204;5.778;2023-02-28T06:30:16;5.70;99.90
53520;DHT22;39397;53.204;5.778;2023-02-28T06:32:41;5.70;99.90
53520;DHT22;39397;53.204;5.778;2023-02-28T06:35:07;6.40;99.90
53520;DHT22;39397;53.204;5.778;2023-02-28T06:37:33;5.70;99.90
53520;DHT22;39397;53.204;5.778;2023-02-28T06:39:59;5.80;99.90
53520;DHT22;39397;53.204;5.778;2023-02-28T06:42:25;5.80;99.90
53520;DHT22;39397;53.204;5.778;2023-02-28T06:44:54;5.30;99.90
53520;DHT22;39397;53.204;5.778;2023-02-28T06:47:20;5.20;99.90
53520;DHT22;39397;53.204;5.778;2023-02-28T06:49:46;5.10;99.90
53520;DHT22;39397;53.204;5.778;2023-02-28T06:52:12;4.90;99.90
53520;DHT22;39397;53.204;5.778;2023-02-28T06:54:38;5.70;99.90
53520;DHT22;39397;53.204;5.778;2023-02-28T06:57:03;4.80;99.90
53520;DHT22;39397;53.204;5.778;2023-02-28T06:59:30;5.30;99.90
53520;DHT22;39397;53.204;5.778;2023-02-28T07:01:55;4.70;99.90
53520;DHT22;39397;53.204;5.778;2023-02-28T07:04:22;6.30;99.90
53520;DHT22;39397;53.204;5.778;2023-02-28T07:06:47;4.50;99.90
53520;DHT22;39397;53.204;5.778;2023-02-28T07:09:14;4.90;99.90
53520;DHT22;39397;53.204;5.778;2023-02-28T07:11:40;4.50;99.90
53520;DHT22;39397;53.204;5.778;2023-02-28T07:14:07;4.50;99.90
53520;DHT22;39397;53.204;5.778;2023-02-28T07:16:33;5.80;99.90
53520;DHT22;39397;53.204;5.778;2023-02-28T07:18:59;4.40;99.90
53520;DHT22;39397;53.204;5.778;2023-02-28T07:21:24;5.70;99.90
53520;DHT22;39397;53.204;5.778;2023-02-28T07:23:51;6.00;99.90
53520;DHT22;39397;53.204;5.778;2023-02-28T07:26:18;5.00;99.90
53520;DHT22;39397;53.204;5.778;2023-02-28T07:28:45;4.30;99.90
53520;DHT22;39397;53.204;5.778;2023-02-28T07:31:12;4.10;99.90
53520;DHT22;39397;53.204;5.778;2023-02-28T07:33:39;5.20;99.90
53520;DHT22;39397;53.204;5.778;2023-02-28T07:36:13;4.60;99.90
53520;DHT22;39397;53.204;5.778;2023-02-28T07:38:41;4.20;99.90
53520;DHT22;39397;53.204;5.778;2023-02-28T07:41:08;4.10;99.90
53520;DHT22;39397;53.204;5.778;2023-02-28T07:43:34;3.90;99.90
53520;DHT22;39397;53.204;5.778;2023-02-28T07:46:08;4.10;99.90
53520;DHT22;39397;53.204;5.778;2023-02-28T07:48:35;4.10;99.90
53520;DHT22;39397;53.204;5.778;2023-02-28T07:51:01;4.70;99.90
53520;DHT22;39397;53.204;5.778;2023-02-28T07:53:27;4.30;99.90
53520;DHT22;39397;53.204;5.778;2023-02-28T07:56:00;4.00;99.90
53520;DHT22;39397;53.204;5.778;2023-02-28T07:58:27;5.00;99.90
53520;DHT22;39397;53.204;5.778;2023-02-28T08:00:54;5.10;99.90
53520;DHT22;39397;53.204;5.778;2023-02-28T08:03:21;3.90;99.90
53520;DHT22;39397;53.204;5.778;2023-02-28T08:05:48;5.20;99.90
53520;DHT22;39397;53.204;5.778;2023-02-28T08:08:14;4.20;99.90
53520;DHT22;39397;53.204;5.778;2023-02-28T08:10:40;5.00;99.90
53520;DHT22;39397;53.204;5.778;2023-02-28T08:13:06;5.20;99.90
53520;DHT22;39397;53.204;5.778;2023-02-28T08:15:32;4.40;99.90
53520;DHT22;39397;53.204;5.778;2023-02-28T08:17:58;4.70;99.90
53520;DHT22;39397;53.204;5.778;2023-02-28T08:20:25;5.00;99.90
53520;DHT22;39397;53.204;5.778;2023-02-28T08:22:51;4.00;99.90
53520;DHT22;39397;53.204;5.778;2023-02-28T08:25:17;2.20;99.90
53520;DHT22;39397;53.204;5.778;2023-02-28T08:27:43;4.90;99.90
53520;DHT22;39397;53.204;5.778;2023-02-28T08:30:13;3.90;99.90
53520;DHT22;39397;53.204;5.778;2023-02-28T08:32:39;4.00;99.90
53520;DHT22;39397;53.204;5.778;2023-02-28T08:35:05;4.00;99.90
53520;DHT22;39397;53.204;5.778;2023-02-28T08:37:31;4.20;99.90
53520;DHT22;39397;53.204;5.778;2023-02-28T08:39:56;4.40;99.90
53520;DHT22;39397;53.204;5.778;2023-02-28T08:42:23;4.90;99.90
53520;DHT22;39397;53.204;5.778;2023-02-28T08:44:51;4.30;99.90
53520;DHT22;39397;53.204;5.778;2023-02-28T08:47:16;4.30;99.90
53520;DHT22;39397;53.204;5.778;2023-02-28T08:49:42;5.90;99.90
53520;DHT22;39397;53.204;5.778;2023-02-28T08:52:08;6.10;99.90
53520;DHT22;39397;53.204;5.778;2023-02-28T08:54:35;4.40;99.90
53520;DHT22;39397;53.204;5.778;2023-02-28T08:57:01;5.50;99.90
53520;DHT22;39397;53.204;5.778;2023-02-28T08:59:27;4.50;99.90
53520;DHT22;39397;53.204;5.778;2023-02-28T09:01:53;5.10;99.90
53520;DHT22;39397;53.204;5.778;2023-02-28T09:04:19;5.40;99.90
53520;DHT22;39397;53.204;5.778;2023-02-28T09:06:44;6.50;99.90
53520;DHT22;39397;53.204;5.778;2023-02-28T09:09:10;5.00;99.90
53520;DHT22;39397;53.204;5.778;2023-02-28T09:11:36;5.00;99.90
53520;DHT22;39397;53.204;5.778;2023-02-28T09:14:03;6.40;99.90
53520;DHT22;39397;53.204;5.778;2023-02-28T09:16:30;5.00;99.90
53520;DHT22;39397;53.204;5.778;2023-02-28T09:18:56;5.00;99.90
53520;DHT22;39397;53.204;5.778;2023-02-28T09:21:22;5.30;99.90
53520;DHT22;39397;53.204;5.778;2023-02-28T09:23:49;5.60;99.90
53520;DHT22;39397;53.204;5.778;2023-02-28T09:26:18;5.20;99.90
53520;DHT22;39397;53.204;5.778;2023-02-28T09:28:44;5.80;99.90
53520;DHT22;39397;53.204;5.778;2023-02-28T09:31:18;6.50;99.90
53520;DHT22;39397;53.204;5.778;2023-02-28T09:33:48;5.30;99.90
53520;DHT22;39397;53.204;5.778;2023-02-28T09:36:14;5.30;99.90
53520;DHT22;39397;53.204;5.778;2023-02-28T09:38:40;5.50;99.90
53520;DHT22;39397;53.204;5.778;2023-02-28T09:41:24;5.60;99.90
53520;DHT22;39397;53.204;5.778;2023-02-28T09:43:56;6.30;99.90
53520;DHT22;39397;53.204;5.778;2023-02-28T09:46:33;5.70;99.90
53520;DHT22;39397;53.204;5.778;2023-02-28T09:49:02;6.40;99.90
53520;DHT22;39397;53.204;5.778;2023-02-28T09:54:24;6.50;99.90
53520;DHT22;39397;53.204;5.778;2023-02-28T09:56:58;6.10;99.90
53520;DHT22;39397;53.204;5.778;2023-02-28T10:02:54;6.30;99.90
53520;DHT22;39397;53.204;5.778;2023-02-28T10:08:33;6.50;99.90
53520;DHT22;39397;53.204;5.778;2023-02-28T10:11:03;6.90;99.90
53520;DHT22;39397;53.204;5.778;2023-02-28T10:16:11;6.70;99.90
53520;DHT22;39397;53.204;5.778;2023-02-28T10:19:04;6.60;99.90
53520;DHT22;39397;53.204;5.778;2023-02-28T10:21:34;6.70;99.90
53520;DHT22;39397;53.204;5.778;2023-02-28T10:24:16;7.10;99.90
53520;DHT22;39397;53.204;5.778;2023-02-28T10:26:45;6.90;99.90
53520;DHT22;39397;53.204;5.778;2023-02-28T10:29:12;6.50;99.90
53520;DHT22;39397;53.204;5.778;2023-02-28T10:31:39;6.90;99.90
53520;DHT22;39397;53.204;5.778;2023-02-28T10:34:05;6.80;99.90
53520;DHT22;39397;53.204;5.778;2023-02-28T10:36:32;6.90;99.90
53520;DHT22;39397;53.204;5.778;2023-02-28T10:38:57;7.60;99.90
53520;DHT22;39397;53.204;5.778;2023-02-28T10:41:32;7.50;99.90
53520;DHT22;39397;53.204;5.778;2023-02-28T10:44:20;7.30;99.90
53520;DHT22;39397;53.204;5.778;2023-02-28T10:46:46;7.00;99.90
53520;DHT22;39397;53.204;5.778;2023-02-28T10:49:21;7.90;99.90
53520;DHT22;39397;53.204;5.778;2023-02-28T10:51:51;7.30;99.90
53520;DHT22;39397;53.204;5.778;2023-02-28T10:54:31;8.10;99.90
53520;DHT22;39397;53.204;5.778;2023-02-28T10:59:35;7.40;99.90
53520;DHT22;39397;53.204;5.778;2023-02-28T11:02:01;7.50;99.90
53520;DHT22;39397;53.204;5.778;2023-02-28T11:07:11;7.70;99.90
53520;DHT22;39397;53.204;5.778;2023-02-28T11:09:46;7.80;99.90
53520;DHT22;39397;53.204;5.778;2023-02-28T11:12:36;8.70;99.90
53520;DHT22;39397;53.204;5.778;2023-02-28T11:18:00;7.90;99.90
53520;DHT22;39397;53.204;5.778;2023-02-28T11:20:30;8.00;99.90
53520;DHT22;39397;53.204;5.778;2023-02-28T11:22:57;7.90;99.90
53520;DHT22;39397;53.204;5.778;2023-02-28T11:25:26;8.10;99.90
53520;DHT22;39397;53.204;5.778;2023-02-28T11:27:56;8.20;99.90
53520;DHT22;39397;53.204;5.778;2023-02-28T11:30:37;8.40;99.90
53520;DHT22;39397;53.204;5.778;2023-02-28T11:33:30;8.60;99.90
53520;DHT22;39397;53.204;5.778;2023-02-28T11:38:43;8.90;99.90
53520;DHT22;39397;53.204;5.778;2023-02-28T11:46:47;9.20;99.90
53520;DHT22;39397;53.204;5.778;2023-02-28T12:03:14;9.50;99.90
53520;DHT22;39397;53.204;5.778;2023-02-28T12:06:01;9.50;99.90
53520;DHT22;39397;53.204;5.778;2023-02-28T12:11:53;9.70;99.90
53520;DHT22;39397;53.204;5.778;2023-02-28T12:14:53;9.60;99.90
53520;DHT22;39397;53.204;5.778;2023-02-28T12:20:45;9.40;99.90
53520;DHT22;39397;53.204;5.778;2023-02-28T12:28:27;9.50;99.90
53520;DHT22;39397;53.204;5.778;2023-02-28T12:30:58;9.70;99.90
53520;DHT22;39397;53.204;5.778;2023-02-28T12:33:31;9.80;99.90
53520;DHT22;39397;53.204;5.778;2023-02-28T12:36:03;9.70;99.90
53520;DHT22;39397;53.204;5.778;2023-02-28T12:38:34;9.60;99.90
53520;DHT22;39397;53.204;5.778;2023-02-28T12:41:04;9.60;99.90
53520;DHT22;39397;53.204;5.778;2023-02-28T12:43:37;9.60;99.90
53520;DHT22;39397;53.204;5.778;2023-02-28T12:46:21;9.40;99.90
53520;DHT22;39397;53.204;5.778;2023-02-28T12:48:52;9.60;99.90
53520;DHT22;39397;53.204;5.778;2023-02-28T12:51:19;9.50;99.90
53520;DHT22;39397;53.204;5.778;2023-02-28T12:53:57;9.50;99.90
53520;DHT22;39397;53.204;5.778;2023-02-28T13:02:01;9.40;99.90
53520;DHT22;39397;53.204;5.778;2023-02-28T13:08:03;9.20;99.90
53520;DHT22;39397;53.204;5.778;2023-02-28T13:10:20;9.00;99.90
53520;DHT22;39397;53.204;5.778;2023-02-28T13:12:53;9.00;99.90
53520;DHT22;39397;53.204;5.778;2023-02-28T13:15:26;9.10;99.90
53520;DHT22;39397;53.204;5.778;2023-02-28T13:17:56;7.30;99.90
53520;DHT22;39397;53.204;5.778;2023-02-28T13:20:31;9.10;99.90
53520;DHT22;39397;53.204;5.778;2023-02-28T13:22:58;9.10;99.90
53520;DHT22;39397;53.204;5.778;2023-02-28T13:28:12;8.90;99.90
53520;DHT22;39397;53.204;5.778;2023-02-28T13:31:04;8.90;99.90
53520;DHT22;39397;53.204;5.778;2023-02-28T13:33:35;8.90;99.90
53520;DHT22;39397;53.204;5.778;2023-02-28T13:38:49;8.90;99.90
53520;DHT22;39397;53.204;5.778;2023-02-28T13:44:17;8.90;99.90
53520;DHT22;39397;53.204;5.778;2023-02-28T13:52:15;9.00;99.90
53520;DHT22;39397;53.204;5.778;2023-02-28T14:05:37;8.90;99.90
53520;DHT22;39397;53.204;5.778;2023-02-28T14:08:20;8.70;99.90
53520;DHT22;39397;53.204;5.778;2023-02-28T14:10:49;8.70;99.90
53520;DHT22;39397;53.204;5.778;2023-02-28T14:13:39;7.10;99.90
53520;DHT22;39397;53.204;5.778;2023-02-28T14:16:19;8.40;99.90
53520;DHT22;39397;53.204;5.778;2023-02-28T14:18:51;8.50;99.90
53520;DHT22;39397;53.204;5.778;2023-02-28T14:21:26;8.50;99.90
53520;DHT22;39397;53.204;5.778;2023-02-28T14:26:31;8.20;99.90
53520;DHT22;39397;53.204;5.778;2023-02-28T14:31:55;8.20;99.90
53520;DHT22;39397;53.204;5.778;2023-02-28T14:35:00;8.10;99.90
53520;DHT22;39397;53.204;5.778;2023-02-28T14:37:36;8.00;99.90
53520;DHT22;39397;53.204;5.778;2023-02-28T14:40:04;8.10;99.90
53520;DHT22;39397;53.204;5.778;2023-02-28T14:42:35;7.80;99.90
53520;DHT22;39397;53.204;5.778;2023-02-28T14:45:03;8.70;99.90
53520;DHT22;39397;53.204;5.778;2023-02-28T14:47:34;7.80;99.90
53520;DHT22;39397;53.204;5.778;2023-02-28T14:50:02;8.00;99.90
53520;DHT22;39397;53.204;5.778;2023-02-28T14:52:31;7.90;99.90
53520;DHT22;39397;53.204;5.778;2023-02-28T14:55:05;8.90;99.90
53520;DHT22;39397;53.204;5.778;2023-02-28T14:57:40;8.10;99.90
53520;DHT22;39397;53.204;5.778;2023-02-28T15:00:28;8.20;99.90
53520;DHT22;39397;53.204;5.778;2023-02-28T15:02:55;8.10;99.90
53520;DHT22;39397;53.204;5.778;2023-02-28T15:07:48;9.20;99.90
53520;DHT22;39397;53.204;5.778;2023-02-28T15:10:23;8.70;99.90
53520;DHT22;39397;53.204;5.778;2023-02-28T15:13:05;8.80;99.90
53520;DHT22;39397;53.204;5.778;2023-02-28T15:21:05;9.40;99.90
53520;DHT22;39397;53.204;5.778;2023-02-28T15:23:32;9.50;99.90
53520;DHT22;39397;53.204;5.778;2023-02-28T15:25:58;9.80;99.90
53520;DHT22;39397;53.204;5.778;2023-02-28T15:28:25;9.90;99.90
53520;DHT22;39397;53.204;5.778;2023-02-28T15:31:00;10.10;99.90
53520;DHT22;39397;53.204;5.778;2023-02-28T15:33:34;9.80;99.90
53520;DHT22;39397;53.204;5.778;2023-02-28T15:36:13;9.60;99.90
53520;DHT22;39397;53.204;5.778;2023-02-28T15:38:42;9.30;99.90
53520;DHT22;39397;53.204;5.778;2023-02-28T15:41:30;9.60;99.90
53520;DHT22;39397;53.204;5.778;2023-02-28T15:47:19;8.70;99.90
53520;DHT22;39397;53.204;5.778;2023-02-28T15:49:47;8.40;99.90
53520;DHT22;39397;53.204;5.778;2023-02-28T15:52:17;8.10;99.90
53520;DHT22;39397;53.204;5.778;2023-02-28T15:54:44;8.80;99.90
53520;DHT22;39397;53.204;5.778;2023-02-28T15:57:21;7.70;99.90
53520;DHT22;39397;53.204;5.778;2023-02-28T16:00:11;7.30;99.90
53520;DHT22;39397;53.204;5.778;2023-02-28T16:02:38;7.20;99.90
53520;DHT22;39397;53.204;5.778;2023-02-28T16:07:41;7.30;99.90
53520;DHT22;39397;53.204;5.778;2023-02-28T16:10:10;7.00;99.90
53520;DHT22;39397;53.204;5.778;2023-02-28T16:12:38;6.90;99.90
53520;DHT22;39397;53.204;5.778;2023-02-28T16:15:31;6.90;99.90
53520;DHT22;39397;53.204;5.778;2023-02-28T16:17:57;6.80;99.90
53520;DHT22;39397;53.204;5.778;2023-02-28T16:20:25;5.00;99.90
53520;DHT22;39397;53.204;5.778;2023-02-28T16:22:52;7.80;99.90
53520;DHT22;39397;53.204;5.778;2023-02-28T16:25:21;6.60;99.90
53520;DHT22;39397;53.204;5.778;2023-02-28T16:27:50;7.60;99.90
53520;DHT22;39397;53.204;5.778;2023-02-28T16:30:23;6.20;99.90
53520;DHT22;39397;53.204;5.778;2023-02-28T16:32:50;4.50;99.90
53520;DHT22;39397;53.204;5.778;2023-02-28T16:35:17;6.60;99.90
53520;DHT22;39397;53.204;5.778;2023-02-28T16:37:43;6.00;99.90
53520;DHT22;39397;53.204;5.778;2023-02-28T16:40:14;5.90;99.90
53520;DHT22;39397;53.204;5.778;2023-02-28T16:42:41;5.80;99.90
53520;DHT22;39397;53.204;5.778;2023-02-28T16:45:15;6.30;99.90
53520;DHT22;39397;53.204;5.778;2023-02-28T16:47:49;5.70;99.90
53520;DHT22;39397;53.204;5.778;2023-02-28T16:50:20;5.60;99.90
53520;DHT22;39397;53.204;5.778;2023-02-28T16:52:46;5.50;99.90
53520;DHT22;39397;53.204;5.778;2023-02-28T16:55:13;5.80;99.90
53520;DHT22;39397;53.204;5.778;2023-02-28T16:57:39;5.50;99.90
53520;DHT22;39397;53.204;5.778;2023-02-28T17:00:07;5.40;99.90
53520;DHT22;39397;53.204;5.778;2023-02-28T17:02:34;5.40;99.90
53520;DHT22;39397;53.204;5.778;2023-02-28T17:05:00;5.30;99.90
53520;DHT22;39397;53.204;5.778;2023-02-28T17:07:26;6.60;99.90
53520;DHT22;39397;53.204;5.778;2023-02-28T17:09:51;5.20;99.90
53520;DHT22;39397;53.204;5.778;2023-02-28T17:12:17;6.10;99.90
53520;DHT22;39397;53.204;5.778;2023-02-28T17:14:43;4.90;99.90
53520;DHT22;39397;53.204;5.778;2023-02-28T17:17:18;5.20;99.90
53520;DHT22;39397;53.204;5.778;2023-02-28T17:19:45;5.00;99.90
53520;DHT22;39397;53.204;5.778;2023-02-28T17:22:11;4.80;99.90
53520;DHT22;39397;53.204;5.778;2023-02-28T17:24:37;4.70;99.90
53520;DHT22;39397;53.204;5.778;2023-02-28T17:27:02;4.70;99.90
53520;DHT22;39397;53.204;5.778;2023-02-28T17:29:28;4.90;99.90
53520;DHT22;39397;53.204;5.778;2023-02-28T17:31:54;5.30;99.90
53520;DHT22;39397;53.204;5.778;2023-02-28T17:34:21;4.90;99.90
53520;DHT22;39397;53.204;5.778;2023-02-28T17:36:49;5.00;99.90
53520;DHT22;39397;53.204;5.778;2023-02-28T17:39:16;5.60;99.90
53520;DHT22;39397;53.204;5.778;2023-02-28T17:41:47;4.50;99.90
53520;DHT22;39397;53.204;5.778;2023-02-28T17:44:12;4.30;99.90
53520;DHT22;39397;53.204;5.778;2023-02-28T17:46:38;4.10;99.90
53520;DHT22;39397;53.204;5.778;2023-02-28T17:49:05;4.40;99.90
53520;DHT22;39397;53.204;5.778;2023-02-28T17:51:30;4.10;99.90
53520;DHT22;39397;53.204;5.778;2023-02-28T17:53:56;5.30;99.90
53520;DHT22;39397;53.204;5.778;2023-02-28T17:56:24;4.00;99.90
53520;DHT22;39397;53.204;5.778;2023-02-28T17:58:53;5.20;99.90
53520;DHT22;39397;53.204;5.778;2023-02-28T18:01:19;5.20;99.90
53520;DHT22;39397;53.204;5.778;2023-02-28T18:03:49;3.80;99.90
53520;DHT22;39397;53.204;5.778;2023-02-28T18:06:21;3.80;99.90
53520;DHT22;39397;53.204;5.778;2023-02-28T18:08:47;4.90;99.90
53520;DHT22;39397;53.204;5.778;2023-02-28T18:11:14;5.40;99.90
53520;DHT22;39397;53.204;5.778;2023-02-28T18:13:47;4.50;99.90
53520;DHT22;39397;53.204;5.778;2023-02-28T18:16:13;5.40;99.90
53520;DHT22;39397;53.204;5.778;2023-02-28T18:18:39;4.20;99.90
53520;DHT22;39397;53.204;5.778;2023-02-28T18:21:06;3.80;99.90
53520;DHT22;39397;53.204;5.778;2023-02-28T18:23:32;4.60;99.90
53520;DHT22;39397;53.204;5.778;2023-02-28T18:25:58;4.50;99.90